createdAt,value
2019-03-10T00:02:03.265Z,98926.09
2019-03-10T00:04:30.006Z,98923.44
2019-03-10T00:06:56.760Z,98912.61
2019-03-10T00:09:23.475Z,98915.26
2019-03-10T00:11:50.582Z,98913.14
2019-03-10T00:14:17.464Z,98906.53
2019-03-10T00:16:44.531Z,98936.66
2019-03-10T00:19:11.361Z,98895.67
2019-03-10T00:21:38.142Z,98897.00
2019-03-10T00:24:05.183Z,98944.88
2019-03-10T00:26:31.991Z,98906.25
2019-03-10T00:28:58.744Z,98906.53
2019-03-10T00:31:25.450Z,98914.45
2019-03-10T00:33:52.168Z,98902.56
2019-03-10T00:36:18.862Z,98890.41
2019-03-10T00:39:19.870Z,98882.75
2019-03-10T00:42:29.102Z,98881.16
2019-03-10T00:46:05.118Z,98871.11
2019-03-10T00:49:13.668Z,98860.01
2019-03-10T00:52:13.526Z,98856.84
2019-03-10T00:54:40.382Z,98854.99
2019-03-10T00:57:07.181Z,98847.06
2019-03-10T00:59:33.882Z,98842.30
2019-03-10T01:02:00.602Z,98862.65
2019-03-10T01:04:27.347Z,98850.75
2019-03-10T01:06:54.052Z,98845.73
2019-03-10T01:09:20.903Z,98842.84
2019-03-10T01:11:51.332Z,98838.34
2019-03-10T01:14:18.058Z,98825.39
2019-03-10T01:16:44.886Z,98813.75
2019-03-10T01:19:12.001Z,98812.42
2019-03-10T01:21:41.284Z,98807.13
2019-03-10T01:24:07.982Z,98804.77
2019-03-10T01:26:34.705Z,98798.93
2019-03-10T01:29:01.417Z,98794.20
2019-03-10T01:32:10.255Z,98814.79
2019-03-10T01:34:49.722Z,98786.51
2019-03-10T01:37:16.418Z,98776.73
2019-03-10T01:39:43.106Z,98782.02
2019-03-10T01:42:09.826Z,98769.33
2019-03-10T01:44:36.533Z,98765.36
2019-03-10T01:47:06.035Z,98756.39
2019-03-10T01:49:32.874Z,98727.35
2019-03-10T01:51:59.574Z,98715.19
2019-03-10T01:54:26.628Z,98709.62
2019-03-10T01:56:53.327Z,98728.36
2019-03-10T01:59:20.036Z,98722.84
2019-03-10T02:01:46.780Z,98715.70
2019-03-10T02:04:14.463Z,98704.89
2019-03-10T02:06:41.162Z,98694.58
2019-03-10T02:09:07.903Z,98681.09
2019-03-10T02:11:34.637Z,98658.11
2019-03-10T02:14:01.384Z,98639.61
2019-03-10T02:16:30.064Z,98636.16
2019-03-10T02:18:56.809Z,98604.76
2019-03-10T02:21:23.723Z,98621.36
2019-03-10T02:23:50.546Z,98620.32
2019-03-10T02:26:17.260Z,98633.02
2019-03-10T02:28:43.995Z,98629.30
2019-03-10T02:31:10.729Z,98614.51
2019-03-10T02:33:37.451Z,98620.31
2019-03-10T02:36:04.449Z,98610.84
2019-03-10T02:38:31.119Z,98602.61
2019-03-10T02:40:57.821Z,98589.17
2019-03-10T02:43:24.529Z,98601.05
2019-03-10T02:45:51.239Z,98598.39
2019-03-10T02:48:17.970Z,98589.13
2019-03-10T02:50:44.689Z,98578.61
2019-03-10T02:53:11.380Z,98560.91
2019-03-10T02:55:38.091Z,98559.59
2019-03-10T02:58:04.809Z,98552.69
2019-03-10T03:00:31.541Z,98546.87
2019-03-10T03:02:58.268Z,98541.58
2019-03-10T03:05:25.005Z,98518.31
2019-03-10T03:07:51.825Z,98519.09
2019-03-10T03:10:18.525Z,98515.11
2019-03-10T03:12:45.248Z,98511.67
2019-03-10T03:15:12.246Z,98506.88
2019-03-10T03:17:38.953Z,98494.94
2019-03-10T03:20:06.413Z,98492.29
2019-03-10T03:22:34.444Z,98482.80
2019-03-10T03:25:01.401Z,98518.56
2019-03-10T03:27:28.105Z,98474.20
2019-03-10T03:29:54.835Z,98471.02
2019-03-10T03:32:23.656Z,98461.25
2019-03-10T03:34:50.374Z,98454.67
2019-03-10T03:37:19.745Z,98446.53
2019-03-10T03:39:48.736Z,98437.24
2019-03-10T03:42:15.497Z,98422.97
2019-03-10T03:44:42.228Z,98427.52
2019-03-10T03:47:09.176Z,98417.44
2019-03-10T03:49:35.897Z,98414.80
2019-03-10T03:52:02.653Z,98419.10
2019-03-10T03:54:29.607Z,98390.41
2019-03-10T03:56:57.021Z,98383.82
2019-03-10T03:59:23.720Z,98377.26
2019-03-10T04:01:54.219Z,98374.92
2019-03-10T04:04:20.960Z,98369.13
2019-03-10T04:06:47.716Z,98361.20
2019-03-10T04:09:14.497Z,98357.53
2019-03-10T04:11:41.481Z,98342.09
2019-03-10T04:14:08.218Z,98343.93
2019-03-10T04:16:36.261Z,98335.78
2019-03-10T04:19:03.030Z,98332.56
2019-03-10T04:21:29.816Z,98329.99
2019-03-10T04:24:00.465Z,98328.67
2019-03-10T04:26:28.381Z,98319.16
2019-03-10T04:28:55.080Z,98314.25
2019-03-10T04:31:21.806Z,98289.21
2019-03-10T04:33:48.521Z,98283.87
2019-03-10T04:36:15.267Z,98269.62
2019-03-10T04:38:41.987Z,98269.06
2019-03-10T04:41:08.739Z,98257.48
2019-03-10T04:43:35.483Z,98258.06
2019-03-10T04:46:02.302Z,98247.80
2019-03-10T04:48:29.135Z,98245.66
2019-03-10T04:50:55.866Z,98240.92
2019-03-10T04:53:22.545Z,98223.19
2019-03-10T04:56:12.619Z,98190.79
2019-03-10T04:58:43.235Z,98167.36
2019-03-10T05:01:12.217Z,98162.87
2019-03-10T05:03:38.918Z,98172.83
2019-03-10T05:06:08.239Z,98172.66
2019-03-10T05:08:34.943Z,98166.69
2019-03-10T05:11:01.657Z,98151.43
2019-03-10T05:13:28.374Z,98155.61
2019-03-10T05:15:55.088Z,98147.41
2019-03-10T05:18:22.249Z,98146.36
2019-03-10T05:20:49.606Z,98141.81
2019-03-10T05:23:42.069Z,98139.34
2019-03-10T05:26:08.823Z,98136.41
2019-03-10T05:28:38.829Z,98118.08
2019-03-10T05:31:05.567Z,98107.31
2019-03-10T05:33:32.723Z,98114.39
2019-03-10T05:35:59.471Z,98100.95
2019-03-10T05:38:26.224Z,98090.85
2019-03-10T05:40:54.053Z,98097.95
2019-03-10T05:43:20.772Z,98097.66
2019-03-10T05:45:47.474Z,98083.14
2019-03-10T05:48:14.206Z,98095.53
2019-03-10T05:50:40.974Z,98129.59
2019-03-10T05:53:08.719Z,98090.77
2019-03-10T05:55:35.455Z,98066.09
2019-03-10T05:58:02.188Z,98077.14
2019-03-10T06:00:28.993Z,98103.59
2019-03-10T06:02:55.817Z,98104.87
2019-03-10T06:05:22.893Z,98062.38
2019-03-10T06:07:49.638Z,98059.22
2019-03-10T06:10:16.407Z,98049.45
2019-03-10T06:12:43.102Z,98047.56
2019-03-10T06:15:09.836Z,98033.89
2019-03-10T06:17:36.546Z,98046.49
2019-03-10T06:20:03.886Z,98039.08
2019-03-10T06:22:30.633Z,98027.69
2019-03-10T06:24:57.377Z,98013.11
2019-03-10T06:27:27.885Z,98004.69
2019-03-10T06:29:56.184Z,97995.70
2019-03-10T06:32:22.931Z,97999.09
2019-03-10T06:34:53.250Z,98002.21
2019-03-10T06:37:20.563Z,98027.21
2019-03-10T06:39:47.957Z,97992.03
2019-03-10T06:42:17.051Z,97976.58
2019-03-10T06:44:43.794Z,98014.75
2019-03-10T06:47:10.511Z,97996.30
2019-03-10T06:49:37.373Z,97991.20
2019-03-10T06:52:04.108Z,97987.59
2019-03-10T06:54:30.891Z,97993.63
2019-03-10T06:56:57.607Z,97980.10
2019-03-10T06:59:24.355Z,97993.48
2019-03-10T07:01:52.951Z,98024.09
2019-03-10T07:04:19.655Z,97992.86
2019-03-10T07:06:46.373Z,97985.92
2019-03-10T07:09:13.911Z,98003.86
2019-03-10T07:11:42.190Z,97978.66
2019-03-10T07:14:08.936Z,97993.42
2019-03-10T07:16:35.652Z,97971.66
2019-03-10T07:19:02.372Z,97968.38
2019-03-10T07:21:29.097Z,97989.23
2019-03-10T07:23:55.823Z,97967.71
2019-03-10T07:26:22.554Z,97968.80
2019-03-10T07:28:57.291Z,97956.80
2019-03-10T07:31:31.616Z,97951.70
2019-03-10T07:34:10.522Z,97958.16
2019-03-10T07:36:49.762Z,97955.56
2019-03-10T07:39:31.768Z,97935.69
2019-03-10T07:42:06.606Z,97955.94
2019-03-10T07:45:01.746Z,97938.70
2019-03-10T07:47:35.635Z,97936.20
2019-03-10T07:50:11.039Z,97944.63
2019-03-10T07:52:57.371Z,97954.87
2019-03-10T07:55:50.019Z,97946.59
2019-03-10T07:58:34.549Z,97960.91
2019-03-10T08:01:12.358Z,97936.84
2019-03-10T08:03:57.755Z,97951.95
2019-03-10T08:06:50.175Z,97931.70
2019-03-10T08:09:33.211Z,97952.24
2019-03-10T08:12:18.175Z,97935.23
2019-03-10T08:14:56.674Z,97948.46
2019-03-10T08:17:41.879Z,97943.47
2019-03-10T08:20:28.566Z,97932.01
2019-03-10T08:23:17.153Z,97960.54
2019-03-10T08:26:09.761Z,97931.09
2019-03-10T08:28:54.070Z,97924.75
2019-03-10T08:31:37.638Z,97939.88
2019-03-10T08:34:36.466Z,97931.89
2019-03-10T08:37:22.779Z,97942.74
2019-03-10T08:40:12.455Z,97939.88
2019-03-10T08:42:57.806Z,97938.28
2019-03-10T08:45:46.668Z,97935.23
2019-03-10T08:48:31.819Z,97933.08
2019-03-10T08:51:07.674Z,97928.27
2019-03-10T08:53:42.926Z,97938.28
2019-03-10T08:56:33.035Z,97927.21
2019-03-10T08:59:22.066Z,97934.25
2019-03-10T09:02:04.980Z,97921.44
2019-03-10T09:05:00.405Z,97927.58
2019-03-10T09:07:46.777Z,97924.98
2019-03-10T09:10:31.580Z,97912.23
2019-03-10T09:13:06.996Z,97910.11
2019-03-10T09:15:46.832Z,97927.58
2019-03-10T09:18:28.521Z,97910.06
2019-03-10T09:21:08.712Z,97908.58
2019-03-10T09:23:57.831Z,97900.69
2019-03-10T09:26:39.762Z,97925.59
2019-03-10T09:29:15.198Z,97923.84
2019-03-10T09:32:01.252Z,97893.81
2019-03-10T09:35:06.740Z,97889.33
2019-03-10T09:37:51.708Z,97926.84
2019-03-10T09:40:28.074Z,97899.41
2019-03-10T09:43:29.466Z,97885.59
2019-03-10T09:46:19.052Z,97910.96
2019-03-10T09:49:05.814Z,97877.66
2019-03-10T09:51:58.452Z,97883.86
2019-03-10T09:54:44.791Z,97926.89
2019-03-10T09:57:23.906Z,97872.52
2019-03-10T10:00:12.273Z,97875.91
2019-03-10T10:02:53.428Z,97862.84
2019-03-10T10:05:30.276Z,97876.95
2019-03-10T10:08:19.143Z,97910.31
2019-03-10T10:10:59.512Z,97899.23
2019-03-10T10:13:37.739Z,97877.39
2019-03-10T10:16:32.894Z,97921.95
2019-03-10T10:19:22.482Z,97898.44
2019-03-10T10:22:20.676Z,97859.75
2019-03-10T10:25:05.674Z,97881.63
2019-03-10T10:27:41.807Z,97880.06
2019-03-10T10:30:47.357Z,97885.90
2019-03-10T10:33:34.380Z,97911.79
2019-03-10T10:36:15.657Z,97891.06
2019-03-10T10:39:05.020Z,97917.95
2019-03-10T10:41:42.921Z,97906.14
2019-03-10T10:44:16.539Z,97908.51
2019-03-10T10:47:14.865Z,97944.27
2019-03-10T10:49:59.961Z,97895.63
2019-03-10T10:52:37.987Z,97896.38
2019-03-10T10:55:11.807Z,97899.05
2019-03-10T10:57:55.350Z,97905.53
2019-03-10T11:00:38.156Z,97874.03
2019-03-10T11:03:33.320Z,97869.80
2019-03-10T11:06:15.677Z,97879.87
2019-03-10T11:08:54.694Z,97915.38
2019-03-10T11:11:43.939Z,97884.27
2019-03-10T11:14:36.807Z,97881.34
2019-03-10T11:17:21.870Z,97890.72
2019-03-10T11:20:11.196Z,97891.98
2019-03-10T11:23:06.202Z,97854.00
2019-03-10T11:25:55.359Z,97879.34
2019-03-10T11:28:34.031Z,97866.19
2019-03-10T11:31:24.644Z,97902.41
2019-03-10T11:34:02.908Z,97877.95
2019-03-10T11:37:01.508Z,97924.98
2019-03-10T11:39:42.196Z,97888.45
2019-03-10T11:42:43.440Z,97914.76
2019-03-10T11:45:20.841Z,97911.09
2019-03-10T11:48:06.840Z,97896.51
2019-03-10T11:50:53.289Z,97881.83
2019-03-10T11:53:40.993Z,97914.36
2019-03-10T11:56:25.226Z,97906.45
2019-03-10T11:58:57.222Z,97913.44
2019-03-10T12:01:47.560Z,97892.65
2019-03-10T12:04:23.022Z,97886.52
2019-03-10T12:07:09.337Z,97891.17
2019-03-10T12:09:36.186Z,97842.42
2019-03-10T12:12:04.510Z,97919.79
2019-03-10T12:14:34.637Z,97888.91
2019-03-10T12:17:01.376Z,97861.93
2019-03-10T12:19:28.127Z,97845.88
2019-03-10T12:21:57.106Z,97837.30
2019-03-10T12:24:23.963Z,97852.37
2019-03-10T12:26:50.700Z,97881.77
2019-03-10T12:29:19.805Z,97853.30
2019-03-10T12:31:49.454Z,97895.50
2019-03-10T12:34:18.594Z,97883.54
2019-03-10T12:36:48.491Z,97876.83
2019-03-10T12:39:17.144Z,97872.30
2019-03-10T12:41:44.141Z,97855.42
2019-03-10T12:44:12.214Z,97866.98
2019-03-10T12:46:40.961Z,97864.72
2019-03-10T12:49:10.578Z,97858.45
2019-03-10T12:51:37.318Z,97881.75
2019-03-10T12:54:06.162Z,97836.63
2019-03-10T12:56:42.169Z,97855.17
2019-03-10T12:59:08.882Z,97917.16
2019-03-10T13:01:37.497Z,97866.99
2019-03-10T13:04:04.515Z,97879.55
2019-03-10T13:06:31.343Z,97896.92
2019-03-10T13:09:01.715Z,97916.95
2019-03-10T13:11:28.438Z,97955.56
2019-03-10T13:13:55.202Z,97909.22
2019-03-10T13:16:24.773Z,97954.38
2019-03-10T13:18:52.716Z,97985.27
2019-03-10T13:21:19.634Z,97921.50
2019-03-10T13:23:46.537Z,97934.46
2019-03-10T13:26:13.312Z,97938.05
2019-03-10T13:28:40.172Z,97940.80
2019-03-10T13:31:06.931Z,97949.27
2019-03-10T13:33:33.709Z,97961.20
2019-03-10T13:36:00.706Z,97986.49
2019-03-10T13:38:29.791Z,97977.41
2019-03-10T13:40:56.813Z,97983.84
2019-03-10T13:43:23.784Z,97968.91
2019-03-10T13:45:52.835Z,97983.61
2019-03-10T13:48:19.572Z,98032.39
2019-03-10T13:50:46.594Z,97965.91
2019-03-10T13:53:15.399Z,98050.98
2019-03-10T13:55:42.135Z,98156.80
2019-03-10T13:58:08.858Z,98009.78
2019-03-10T14:00:36.164Z,98041.17
2019-03-10T14:03:23.250Z,98113.16
2019-03-10T14:05:50.013Z,98084.78
2019-03-10T14:08:17.676Z,98006.27
2019-03-10T14:10:47.171Z,98135.78
2019-03-10T14:13:14.019Z,98082.30
2019-03-10T14:15:40.886Z,98072.59
2019-03-10T14:18:09.492Z,98070.32
2019-03-10T14:20:36.329Z,98075.03
2019-03-10T14:23:03.029Z,98095.70
2019-03-10T14:25:29.893Z,98107.25
2019-03-10T14:27:57.141Z,98083.98
2019-03-10T14:30:23.859Z,98103.23
2019-03-10T14:32:50.635Z,98114.88
2019-03-10T14:35:19.061Z,98130.49
2019-03-10T14:37:47.678Z,98118.73
2019-03-10T14:40:14.769Z,98161.96
2019-03-10T14:42:41.523Z,98135.80
2019-03-10T14:45:09.703Z,98183.55
2019-03-10T14:47:36.436Z,98197.48
2019-03-10T14:50:03.702Z,98196.11
2019-03-10T14:52:30.437Z,98147.12
2019-03-10T14:55:03.224Z,98189.79
2019-03-10T14:57:30.287Z,98156.11
2019-03-10T15:00:10.354Z,98180.04
2019-03-10T15:02:37.126Z,98237.11
2019-03-10T15:05:04.438Z,98189.31
2019-03-10T15:07:41.969Z,98205.34
2019-03-10T15:10:11.831Z,98215.75
2019-03-10T15:12:38.684Z,98233.27
2019-03-10T15:15:06.199Z,98206.36
2019-03-10T15:17:33.014Z,98212.03
2019-03-10T15:19:59.907Z,98226.16
2019-03-10T15:22:26.609Z,98204.95
2019-03-10T15:24:53.350Z,98219.06
2019-03-10T15:27:23.486Z,98200.97
2019-03-10T15:29:49.650Z,98237.97
2019-03-10T15:32:16.748Z,98229.76
2019-03-10T15:34:43.450Z,98291.05
2019-03-10T15:37:12.143Z,98278.97
2019-03-10T15:39:39.017Z,98267.59
2019-03-10T15:42:05.840Z,98289.80
2019-03-10T15:44:32.598Z,98319.70
2019-03-10T15:46:59.347Z,98318.94
2019-03-10T15:49:27.758Z,98281.38
2019-03-10T15:51:54.512Z,98273.38
2019-03-10T15:54:23.813Z,98293.38
2019-03-10T15:56:54.262Z,98285.30
2019-03-10T15:59:21.236Z,98296.91
2019-03-10T16:01:47.997Z,98335.76
2019-03-10T16:04:22.219Z,98299.50
2019-03-10T16:06:49.111Z,98299.62
2019-03-10T16:09:18.980Z,98299.27
2019-03-10T16:11:45.830Z,98372.59
2019-03-10T16:14:12.681Z,98368.64
2019-03-10T16:16:39.372Z,98311.67
2019-03-10T16:19:06.174Z,98363.86
2019-03-10T16:21:33.059Z,98343.98
2019-03-10T16:24:14.817Z,98340.66
2019-03-10T16:26:41.896Z,98334.39
2019-03-10T16:29:09.125Z,98365.73
2019-03-10T16:31:35.831Z,98348.80
2019-03-10T16:34:02.839Z,98359.34
2019-03-10T16:36:29.925Z,98378.09
2019-03-10T16:38:58.372Z,98380.27
2019-03-10T16:41:25.089Z,98366.17
2019-03-10T16:43:51.842Z,98364.24
2019-03-10T16:46:18.530Z,98367.34
2019-03-10T16:48:45.242Z,98404.42
2019-03-10T16:51:12.117Z,98373.64
2019-03-10T16:53:38.911Z,98407.41
2019-03-10T16:56:05.655Z,98442.06
2019-03-10T16:58:32.531Z,98405.08
2019-03-10T17:00:59.355Z,98442.68
2019-03-10T17:03:26.092Z,98458.07
2019-03-10T17:05:53.679Z,98467.28
2019-03-10T17:08:20.413Z,98467.15
2019-03-10T17:10:47.151Z,98492.31
2019-03-10T17:13:13.921Z,98483.48
2019-03-10T17:15:41.104Z,98506.01
2019-03-10T17:18:08.077Z,98521.61
2019-03-10T17:20:37.170Z,98501.58
2019-03-10T17:23:03.916Z,98524.04
2019-03-10T17:25:31.584Z,98498.18
2019-03-10T17:27:58.328Z,98545.94
2019-03-10T17:30:25.046Z,98501.38
2019-03-10T17:32:51.790Z,98520.35
2019-03-10T17:35:18.638Z,98534.60
2019-03-10T17:37:45.346Z,98548.31
2019-03-10T17:40:14.253Z,98589.98
2019-03-10T17:42:41.229Z,98568.36
2019-03-10T17:45:09.101Z,98578.91
2019-03-10T17:47:35.823Z,98568.88
2019-03-10T17:50:02.904Z,98612.11
2019-03-10T17:52:33.063Z,98612.32
2019-03-10T17:54:59.836Z,98594.40
2019-03-10T17:57:27.925Z,98609.20
2019-03-10T17:59:55.314Z,98606.05
2019-03-10T18:02:22.373Z,98613.37
2019-03-10T18:04:51.913Z,98630.77
2019-03-10T18:07:18.649Z,98624.41
2019-03-10T18:09:45.398Z,98640.23
2019-03-10T18:12:12.141Z,98641.50
2019-03-10T18:14:42.229Z,98630.41
2019-03-10T18:17:09.480Z,98647.83
2019-03-10T18:19:36.860Z,98642.56
2019-03-10T18:22:05.536Z,98647.05
2019-03-10T18:24:32.239Z,98648.33
2019-03-10T18:26:58.960Z,98671.48
2019-03-10T18:29:25.759Z,98648.59
2019-03-10T18:31:54.391Z,98673.09
2019-03-10T18:34:21.161Z,98663.84
2019-03-10T18:36:47.931Z,98662.02
2019-03-10T18:39:17.415Z,98705.72
2019-03-10T18:41:44.172Z,98667.77
2019-03-10T18:44:10.930Z,98684.89
2019-03-10T18:46:37.852Z,98690.42
2019-03-10T18:49:04.614Z,98683.85
2019-03-10T18:51:33.133Z,98699.10
2019-03-10T18:54:00.128Z,98688.00
2019-03-10T18:56:26.969Z,98718.05
2019-03-10T18:58:53.912Z,98727.81
2019-03-10T19:01:22.080Z,98721.43
2019-03-10T19:03:50.756Z,98745.16
2019-03-10T19:06:17.524Z,98724.08
2019-03-10T19:08:44.549Z,98762.29
2019-03-10T19:11:11.389Z,98749.34
2019-03-10T19:13:39.426Z,98743.81
2019-03-10T19:16:06.212Z,98770.66
2019-03-10T19:18:35.762Z,98787.44
2019-03-10T19:21:02.693Z,98770.58
2019-03-10T19:23:30.540Z,98747.07
2019-03-10T19:26:01.433Z,98769.98
2019-03-10T19:28:30.520Z,98789.79
2019-03-10T19:30:57.406Z,98805.59
2019-03-10T19:33:24.280Z,98795.88
2019-03-10T19:35:51.283Z,98792.13
2019-03-10T19:38:18.243Z,98819.19
2019-03-10T19:40:45.121Z,98816.56
2019-03-10T19:43:11.870Z,98823.69
2019-03-10T19:45:38.829Z,98845.80
2019-03-10T19:48:05.576Z,98838.45
2019-03-10T19:50:34.483Z,98832.70
2019-03-10T19:53:01.310Z,98849.80
2019-03-10T19:55:30.405Z,98859.53
2019-03-10T19:57:57.303Z,98853.95
2019-03-10T20:00:24.290Z,98866.60
2019-03-10T20:02:51.186Z,98857.83
2019-03-10T20:05:17.986Z,98871.47
2019-03-10T20:07:45.445Z,98891.89
2019-03-10T20:10:12.486Z,98901.38
2019-03-10T20:12:39.243Z,98894.61
2019-03-10T20:15:08.598Z,98906.13
2019-03-10T20:17:35.523Z,98930.84
2019-03-10T20:20:02.526Z,98923.46
2019-03-10T20:22:29.231Z,98932.78
2019-03-10T20:24:56.218Z,98933.16
2019-03-10T20:27:23.077Z,98917.85
2019-03-10T20:29:50.077Z,98954.05
2019-03-10T20:32:16.826Z,98941.02
2019-03-10T20:34:43.947Z,98932.06
2019-03-10T20:37:10.995Z,98951.16
2019-03-10T20:39:37.683Z,98953.75
2019-03-10T20:42:05.427Z,98954.85
2019-03-10T20:44:32.717Z,98969.73
2019-03-10T20:47:02.293Z,98954.91
2019-03-10T20:49:31.621Z,98957.92
2019-03-10T20:51:58.472Z,98972.75
2019-03-10T20:54:26.966Z,98980.98
2019-03-10T20:56:55.754Z,98980.98
2019-03-10T20:59:22.528Z,98987.09
2019-03-10T21:01:50.014Z,99001.84
2019-03-10T21:04:17.668Z,99001.11
2019-03-10T21:06:45.368Z,99017.99
2019-03-10T21:09:12.211Z,99018.59
2019-03-10T21:11:40.819Z,99037.28
2019-03-10T21:14:08.622Z,99034.73
2019-03-10T21:16:35.409Z,99033.92
2019-03-10T21:19:03.575Z,99047.06
2019-03-10T21:21:30.329Z,99036.08
2019-03-10T21:23:57.627Z,99047.44
2019-03-10T21:26:24.409Z,99051.33
2019-03-10T21:28:51.534Z,99059.11
2019-03-10T21:31:19.657Z,99060.31
2019-03-10T21:33:46.410Z,99058.41
2019-03-10T21:36:13.173Z,99057.69
2019-03-10T21:38:41.774Z,99064.56
2019-03-10T21:41:14.095Z,99060.67
2019-03-10T21:43:37.567Z,99071.09
2019-03-10T21:46:07.740Z,99062.18
2019-03-10T21:48:34.622Z,99073.45
2019-03-10T21:51:04.376Z,99057.39
2019-03-10T21:53:38.518Z,99074.16
2019-03-10T21:56:07.725Z,99074.56
2019-03-10T21:58:34.894Z,99075.67
2019-03-10T22:01:01.818Z,99087.89
2019-03-10T22:03:29.669Z,99088.65
2019-03-10T22:05:56.696Z,99102.10
2019-03-10T22:08:23.643Z,99108.11
2019-03-10T22:10:52.411Z,99122.20
2019-03-10T22:13:19.138Z,99103.13
2019-03-10T22:15:45.873Z,99125.56
2019-03-10T22:18:12.589Z,99125.47
2019-03-10T22:20:39.700Z,99151.33
2019-03-10T22:23:06.419Z,99120.25
2019-03-10T22:25:33.153Z,99119.95
2019-03-10T22:27:59.950Z,99122.16
2019-03-10T22:30:26.681Z,99144.52
2019-03-10T22:32:53.384Z,99146.16
2019-03-10T22:35:20.138Z,99144.84
2019-03-10T22:37:46.842Z,99150.39
2019-03-10T22:40:13.659Z,99131.50
2019-03-10T22:42:40.670Z,99135.62
2019-03-10T22:45:08.263Z,99136.94
2019-03-10T22:47:36.344Z,99139.60
2019-03-10T22:50:03.345Z,99143.78
2019-03-10T22:52:30.064Z,99145.12
2019-03-10T22:54:56.845Z,99149.49
2019-03-10T22:57:23.680Z,99156.00
2019-03-10T22:59:50.527Z,99152.98
2019-03-10T23:02:20.326Z,99161.31
2019-03-10T23:04:47.053Z,99159.91
2019-03-10T23:07:14.123Z,99154.92
2019-03-10T23:09:43.064Z,99153.35
2019-03-10T23:12:12.722Z,99154.16
2019-03-10T23:14:39.430Z,99138.20
2019-03-10T23:17:06.270Z,99156.08
2019-03-10T23:19:33.141Z,99157.42
2019-03-10T23:21:59.868Z,99151.55
2019-03-10T23:24:26.569Z,99158.06
2019-03-10T23:26:54.844Z,99151.55
2019-03-10T23:29:21.671Z,99159.86
2019-03-10T23:31:48.482Z,99155.63
2019-03-10T23:34:15.195Z,99157.95
2019-03-10T23:36:41.917Z,99159.86
2019-03-10T23:39:08.624Z,99158.81
2019-03-10T23:41:35.353Z,99145.70
2019-03-10T23:44:02.060Z,99152.38
2019-03-10T23:46:28.774Z,99153.06
2019-03-10T23:48:55.498Z,99146.38
2019-03-10T23:51:22.627Z,99151.95
2019-03-10T23:53:49.425Z,99149.21
2019-03-10T23:56:16.172Z,99138.52
2019-03-10T23:58:43.379Z,99139.45
